Four Marks, United Kingdom
Current Conditions -  °F | °C
As of 5:50 PM on Friday 19 Dec 2014 (Local Time) from EGVO Reporting Station
Few Clouds Few Clouds  
Wind Chill:   Ceiling: Unl
Heat Index:   Visibility: 6mi
Dew Point:   Wind: 18mph
Humidity: 66%   Direction: 250°WSW
Pressure: 30.12"   Gusts: NA
Location:  51.11°N, 1.05°W
Report Text: EGVO 191750Z 25016KT 9999 FEW030 07/01 Q1020 BLU
Loading
Personal Weather Stations






























Interactive Weather Map New forecast layout! Learn more

10-Day Weather Forecast

Advertisements
Track Severe Weather on mobile